createdAt,value
2018-09-04T04:33:14.884Z,69.60
2018-09-04T04:35:43.075Z,63.20
2018-09-04T04:38:11.296Z,71.10
2018-09-04T04:40:39.664Z,64.93
2018-09-04T04:43:07.858Z,68.53
2018-09-04T04:45:36.085Z,76.70
2018-09-04T04:48:04.542Z,73.50
2018-09-04T04:50:32.732Z,60.63
2018-09-04T04:53:01.174Z,57.63
2018-09-04T04:55:29.412Z,69.90
2018-09-04T04:57:59.635Z,64.20
2018-09-04T05:00:27.969Z,59.43
2018-09-04T05:02:58.047Z,68.53
2018-09-04T05:05:27.217Z,57.33
2018-09-04T05:07:55.480Z,57.67
2018-09-04T05:10:29.870Z,53.53
2018-09-04T05:12:58.152Z,63.87
2018-09-04T05:15:26.353Z,57.73
2018-09-04T05:17:54.605Z,53.57
2018-09-04T05:20:25.012Z,63.07
2018-09-04T05:22:56.201Z,59.30
2018-09-04T05:25:24.461Z,62.77
2018-09-04T05:27:52.965Z,77.80
2018-09-04T05:30:26.097Z,59.53
2018-09-04T05:32:59.712Z,52.73
2018-09-04T05:35:31.030Z,51.50
2018-09-04T05:37:59.272Z,53.40
2018-09-04T05:40:27.524Z,55.80
2018-09-04T05:43:09.651Z,56.97
2018-09-04T05:45:39.785Z,59.63
2018-09-04T05:48:10.011Z,48.67
2018-09-04T05:50:38.703Z,61.23
2018-09-04T05:53:09.574Z,60.70
2018-09-04T05:55:37.887Z,57.17
2018-09-04T05:58:06.123Z,54.37
2018-09-04T06:00:39.573Z,56.63
2018-09-04T06:03:07.739Z,56.03
2018-09-04T06:05:35.973Z,48.47
2018-09-04T06:08:04.203Z,55.63
2018-09-04T06:10:32.386Z,52.27
2018-09-04T06:13:00.585Z,50.50
2018-09-04T06:15:28.804Z,52.53
2018-09-04T06:17:57.004Z,57.07
2018-09-04T06:20:25.129Z,51.47
2018-09-04T06:22:53.290Z,56.17
2018-09-04T06:25:21.470Z,54.67
2018-09-04T06:27:49.629Z,51.93
2018-09-04T06:30:17.852Z,57.60
2018-09-04T06:32:46.022Z,54.57
2018-09-04T06:35:14.140Z,54.97
2018-09-04T06:37:42.304Z,52.90
2018-09-04T06:40:10.445Z,57.20
2018-09-04T06:42:38.654Z,58.03
2018-09-04T06:45:06.815Z,54.40
2018-09-04T06:47:35.005Z,50.93
2018-09-04T06:50:03.171Z,52.00
2018-09-04T06:52:31.353Z,60.87
2018-09-04T06:54:59.484Z,48.27
2018-09-04T06:57:27.772Z,50.13
2018-09-04T06:59:56.025Z,56.13
2018-09-04T07:02:24.185Z,49.13
2018-09-04T07:04:52.363Z,49.60
2018-09-04T07:07:20.545Z,50.00
2018-09-04T07:09:49.777Z,60.05
2018-09-04T07:12:23.084Z,55.43
2018-09-04T07:14:51.347Z,60.20
2018-09-04T07:17:19.524Z,51.80
2018-09-04T07:19:47.741Z,57.80
2018-09-04T07:22:15.936Z,58.70
2018-09-04T07:24:44.233Z,61.87
2018-09-04T07:27:12.637Z,64.53
2018-09-04T07:29:40.959Z,64.13
2018-09-04T07:32:09.329Z,64.50
2018-09-04T07:34:37.495Z,70.30
2018-09-04T07:37:05.850Z,71.97
2018-09-04T07:39:34.043Z,74.37
2018-09-04T07:42:02.301Z,64.13
2018-09-04T07:44:30.460Z,73.63
2018-09-04T07:46:58.663Z,64.77
2018-09-04T07:49:26.880Z,73.67
2018-09-04T07:51:55.035Z,69.07
2018-09-04T07:54:23.205Z,72.73
2018-09-04T07:56:51.497Z,70.03
2018-09-04T07:59:19.689Z,67.70
2018-09-04T08:01:47.884Z,73.50
2018-09-04T08:04:16.253Z,71.00
2018-09-04T08:06:44.469Z,85.00
2018-09-04T08:09:12.744Z,70.37
2018-09-04T08:11:40.969Z,76.53
2018-09-04T08:14:09.249Z,80.07
2018-09-04T08:16:37.606Z,75.07
2018-09-04T08:19:05.826Z,69.33
2018-09-04T08:21:35.719Z,78.77
2018-09-04T08:24:04.897Z,72.30
2018-09-04T08:26:33.145Z,77.83
2018-09-04T08:29:01.399Z,82.40
2018-09-04T08:31:29.627Z,75.60
2018-09-04T08:33:58.008Z,83.03
2018-09-04T08:36:26.256Z,81.60
2018-09-04T08:38:54.511Z,73.03
2018-09-04T08:41:22.650Z,76.80
2018-09-04T08:43:50.853Z,73.80
2018-09-04T08:46:19.635Z,75.20
2018-09-04T08:48:47.846Z,79.43
2018-09-04T08:51:16.034Z,75.07
2018-09-04T08:53:44.260Z,67.43
2018-09-04T08:56:12.482Z,74.53
2018-09-04T08:58:40.738Z,69.17
2018-09-04T09:01:08.912Z,66.83
2018-09-04T09:03:37.233Z,65.20
2018-09-04T09:06:05.748Z,68.77
2018-09-04T09:08:33.929Z,63.53
2018-09-04T09:11:02.110Z,60.57
2018-09-04T09:13:30.335Z,61.90
2018-09-04T09:15:58.610Z,62.80
2018-09-04T09:18:26.830Z,66.07
2018-09-04T09:20:55.025Z,66.17
2018-09-04T09:23:23.390Z,60.20
2018-09-04T09:25:51.832Z,62.20
2018-09-04T09:28:20.113Z,53.83
2018-09-04T09:30:48.499Z,59.00
2018-09-04T09:33:17.618Z,72.93
2018-09-04T09:35:48.541Z,51.63
2018-09-04T09:38:16.898Z,50.90
2018-09-04T09:40:45.445Z,51.40
2018-09-04T09:43:13.696Z,51.13
2018-09-04T09:45:42.366Z,41.90
2018-09-04T09:48:10.873Z,46.40
2018-09-04T09:50:39.401Z,53.03
2018-09-04T09:53:07.718Z,48.73
2018-09-04T09:55:36.067Z,46.20
2018-09-04T09:58:04.452Z,40.93
2018-09-04T10:00:34.135Z,37.73
2018-09-04T10:03:09.728Z,35.57
2018-09-04T10:05:37.988Z,41.20
2018-09-04T10:08:06.689Z,41.40
2018-09-04T10:10:34.986Z,40.10
2018-09-04T10:13:03.362Z,40.00
2018-09-04T10:15:31.682Z,37.30
2018-09-04T10:17:59.882Z,28.83
2018-09-04T10:20:28.368Z,33.63
2018-09-04T10:22:56.600Z,36.53
2018-09-04T10:25:24.777Z,33.47
2018-09-04T10:27:52.944Z,35.93
2018-09-04T10:30:21.165Z,32.37
2018-09-04T10:32:52.705Z,31.80
2018-09-04T10:35:21.567Z,29.57
2018-09-04T10:37:50.243Z,37.07
2018-09-04T10:40:23.733Z,32.30
2018-09-04T10:42:51.978Z,32.63
2018-09-04T10:45:25.480Z,23.50
2018-09-04T10:47:54.053Z,26.70
2018-09-04T10:50:22.372Z,27.10
2018-09-04T10:52:50.871Z,28.63
2018-09-04T10:55:19.173Z,25.70
2018-09-04T10:57:47.434Z,27.93
2018-09-04T11:00:16.372Z,21.10
2018-09-04T11:02:44.617Z,19.90
2018-09-04T11:05:12.820Z,20.43
2018-09-04T11:07:40.986Z,19.07
2018-09-04T11:10:09.197Z,22.33
2018-09-04T11:12:37.391Z,24.70
2018-09-04T11:15:05.613Z,22.20
2018-09-04T11:17:33.838Z,19.00
2018-09-04T11:20:02.036Z,18.70
2018-09-04T11:22:30.203Z,20.27
2018-09-04T11:24:58.368Z,18.80
2018-09-04T11:27:26.545Z,18.53
2018-09-04T11:29:54.773Z,17.77
2018-09-04T11:32:23.072Z,13.10
2018-09-04T11:34:51.308Z,17.37
2018-09-04T11:37:19.542Z,16.60
2018-09-04T11:39:47.758Z,18.00
2018-09-04T11:42:16.034Z,20.23
2018-09-04T11:44:44.984Z,13.50
2018-09-04T11:47:13.445Z,15.90
2018-09-04T11:49:42.327Z,17.07
2018-09-04T11:52:10.596Z,13.57
2018-09-04T11:54:38.812Z,12.80
2018-09-04T11:57:07.069Z,12.23
2018-09-04T11:59:39.174Z,12.00
2018-09-04T12:02:11.112Z,16.07
2018-09-04T12:04:39.267Z,11.87
2018-09-04T12:07:07.500Z,13.67
2018-09-04T12:09:35.661Z,15.73
2018-09-04T12:12:03.947Z,13.13
2018-09-04T12:14:37.796Z,13.63
2018-09-04T12:17:07.393Z,12.93
2018-09-04T12:19:38.152Z,11.90
2018-09-04T12:22:06.352Z,15.93
2018-09-04T12:24:34.520Z,16.17
2018-09-04T12:27:02.763Z,15.63
2018-09-04T12:29:30.891Z,14.47
2018-09-04T12:31:59.134Z,14.80
2018-09-04T12:34:27.365Z,13.30
2018-09-04T12:36:55.561Z,15.87
2018-09-04T12:39:23.779Z,18.77
2018-09-04T12:41:52.009Z,17.70
2018-09-04T12:44:20.202Z,20.90
2018-09-04T12:46:48.369Z,27.43
2018-09-04T12:49:16.537Z,24.83
2018-09-04T12:51:44.732Z,20.30
2018-09-04T12:54:12.891Z,30.30
2018-09-04T12:56:41.119Z,24.43
2018-09-04T12:59:09.313Z,26.77
2018-09-04T13:01:37.580Z,26.13
2018-09-04T13:04:05.767Z,21.40
2018-09-04T13:06:33.955Z,28.87
2018-09-04T13:09:02.130Z,24.70
2018-09-04T13:11:30.313Z,25.30
2018-09-04T13:13:58.509Z,24.40
2018-09-04T13:16:26.711Z,32.13
2018-09-04T13:18:54.944Z,26.13
2018-09-04T13:21:23.586Z,32.47
2018-09-04T13:23:51.793Z,31.07
2018-09-04T13:26:19.991Z,35.10
2018-09-04T13:28:48.227Z,29.47
2018-09-04T13:31:16.457Z,29.20
2018-09-04T13:33:44.642Z,35.07
2018-09-04T13:36:12.799Z,37.67
2018-09-04T13:38:41.000Z,33.90
2018-09-04T13:41:09.548Z,33.73
2018-09-04T13:43:39.072Z,31.73
2018-09-04T13:46:07.306Z,38.00
2018-09-04T13:48:35.756Z,34.93
2018-09-04T13:51:03.914Z,33.27
2018-09-04T13:53:32.141Z,34.70
2018-09-04T13:56:00.387Z,34.33
2018-09-04T13:58:28.618Z,39.27
2018-09-04T14:00:56.785Z,41.97
2018-09-04T14:03:24.925Z,35.83
2018-09-04T14:05:53.079Z,37.20
2018-09-04T14:08:21.272Z,41.03
2018-09-04T14:10:49.449Z,37.87
2018-09-04T14:13:18.082Z,35.67
2018-09-04T14:15:46.369Z,42.67
2018-09-04T14:18:14.554Z,36.57
2018-09-04T14:20:42.756Z,42.27
2018-09-04T14:23:10.960Z,35.60
2018-09-04T14:25:39.301Z,39.00
2018-09-04T14:28:07.321Z,42.50
2018-09-04T14:30:35.612Z,40.67
2018-09-04T14:33:03.729Z,35.80
2018-09-04T14:35:31.901Z,36.40
2018-09-04T14:38:00.093Z,44.93
2018-09-04T14:40:28.262Z,39.33
2018-09-04T14:42:56.558Z,44.07
2018-09-04T14:45:24.633Z,36.33
2018-09-04T14:47:52.884Z,41.80
2018-09-04T14:50:21.045Z,40.80
2018-09-04T14:52:49.402Z,34.20
2018-09-04T14:55:17.601Z,34.57
2018-09-04T14:57:45.827Z,32.50
2018-09-04T15:00:13.984Z,42.70
2018-09-04T15:02:42.182Z,32.67
2018-09-04T15:05:10.424Z,31.63
2018-09-04T15:07:38.624Z,31.20
2018-09-04T15:10:06.872Z,29.70
2018-09-04T15:12:35.031Z,34.40
2018-09-04T15:15:03.256Z,31.30
2018-09-04T15:17:31.531Z,29.70
2018-09-04T15:19:59.690Z,30.07
2018-09-04T15:22:27.909Z,30.03
2018-09-04T15:24:56.123Z,25.13
2018-09-04T15:27:24.312Z,29.03
2018-09-04T15:29:52.553Z,23.77
2018-09-04T15:32:20.773Z,35.93
2018-09-04T15:34:49.035Z,27.00
2018-09-04T15:37:17.235Z,25.57
2018-09-04T15:39:45.467Z,23.27
2018-09-04T15:42:13.630Z,23.53
2018-09-04T15:44:41.835Z,26.40
2018-09-04T15:47:10.025Z,24.67
2018-09-04T15:49:43.587Z,27.10
2018-09-04T15:52:11.801Z,29.40
2018-09-04T15:54:40.050Z,26.43
2018-09-04T15:57:08.375Z,24.50
2018-09-04T15:59:36.606Z,30.10
2018-09-04T16:02:04.963Z,24.83
2018-09-04T16:04:33.177Z,20.03
2018-09-04T16:07:01.361Z,23.13
2018-09-04T16:09:29.566Z,26.60
2018-09-04T16:11:57.788Z,30.10
2018-09-04T16:14:26.010Z,22.93
2018-09-04T16:16:54.190Z,21.43
2018-09-04T16:19:22.686Z,23.20
2018-09-04T16:21:50.898Z,23.07
2018-09-04T16:24:19.126Z,24.40
2018-09-04T16:26:47.309Z,27.30
2018-09-04T16:29:15.541Z,23.80
2018-09-04T16:31:43.723Z,25.53
2018-09-04T16:34:11.958Z,26.53
2018-09-04T16:36:40.078Z,22.87
2018-09-04T16:39:08.272Z,22.73
2018-09-04T16:41:36.588Z,26.87
2018-09-04T16:44:04.762Z,21.40
2018-09-04T16:46:33.010Z,21.20
2018-09-04T16:49:01.241Z,23.10
2018-09-04T16:51:29.430Z,20.07
2018-09-04T16:53:57.574Z,20.03
2018-09-04T16:56:26.208Z,22.03
2018-09-04T16:58:54.401Z,19.23
2018-09-04T17:01:22.662Z,19.57
2018-09-04T17:03:51.002Z,24.00
2018-09-04T17:06:19.243Z,22.30
2018-09-04T17:08:47.472Z,18.50
2018-09-04T17:11:15.718Z,21.10
2018-09-04T17:13:43.953Z,17.10
2018-09-04T17:16:12.238Z,21.17
2018-09-04T17:18:40.448Z,18.23
2018-09-04T17:21:08.691Z,18.93
2018-09-04T17:23:36.904Z,19.53
2018-09-04T17:26:05.497Z,19.47
2018-09-04T17:28:33.777Z,17.33
2018-09-04T17:33:56.063Z,20.60
2018-09-04T17:36:24.277Z,24.40
2018-09-04T17:38:52.436Z,34.83
2018-09-04T17:41:20.670Z,26.90
2018-09-04T17:43:48.864Z,23.90
2018-09-04T17:46:17.060Z,26.43
2018-09-04T17:48:45.234Z,25.70
2018-09-04T17:51:13.450Z,24.37
2018-09-04T17:53:41.627Z,24.70
2018-09-04T17:56:09.786Z,23.23
2018-09-04T17:58:38.000Z,19.53
2018-09-04T18:01:06.276Z,22.20
2018-09-04T18:03:34.438Z,25.60
2018-09-04T18:06:02.692Z,35.90
2018-09-04T18:08:30.863Z,29.20
2018-09-04T18:10:59.036Z,28.50
2018-09-04T18:13:40.939Z,24.30
2018-09-04T18:16:09.100Z,26.47
2018-09-04T18:18:37.341Z,25.70
2018-09-04T18:21:05.776Z,25.23
2018-09-04T18:23:34.306Z,23.23
2018-09-04T18:26:02.608Z,30.93
2018-09-04T18:28:30.752Z,26.57
2018-09-04T18:30:58.980Z,26.47
2018-09-04T18:33:27.221Z,31.57
2018-09-04T18:35:55.418Z,31.53
2018-09-04T18:38:23.678Z,32.60
2018-09-04T18:40:51.894Z,32.23
2018-09-04T18:43:20.097Z,31.97
2018-09-04T18:45:54.624Z,32.20
2018-09-04T18:48:23.261Z,36.50
2018-09-04T18:50:51.445Z,35.00
2018-09-04T18:53:19.611Z,29.10
2018-09-04T18:55:47.821Z,31.80
2018-09-04T18:58:16.690Z,31.27
2018-09-04T19:00:45.056Z,29.77
2018-09-04T19:03:13.216Z,35.30
2018-09-04T19:05:41.911Z,33.80
2018-09-04T19:08:10.432Z,30.40
2018-09-04T19:10:38.870Z,53.90
2018-09-04T19:13:07.624Z,44.40
2018-09-04T19:24:06.993Z,54.77
2018-09-04T19:26:35.128Z,39.57
2018-09-04T19:29:03.954Z,32.47
2018-09-04T19:31:32.796Z,37.90
2018-09-04T19:34:01.050Z,35.53
2018-09-04T19:36:29.203Z,35.83
2018-09-04T19:38:57.624Z,37.77
2018-09-04T19:41:25.877Z,35.87
2018-09-04T19:43:54.361Z,35.70
2018-09-04T19:46:22.799Z,31.43
2018-09-04T19:48:51.177Z,37.67
2018-09-04T19:51:19.660Z,36.97
2018-09-04T19:53:51.111Z,32.07
2018-09-04T19:56:20.569Z,36.07
2018-09-04T19:58:49.202Z,38.50
2018-09-04T20:01:17.650Z,38.07
2018-09-04T20:03:45.899Z,42.90
2018-09-04T20:06:14.713Z,40.73
2018-09-04T20:08:43.394Z,40.60
2018-09-04T20:11:12.171Z,34.90
2018-09-04T20:13:40.621Z,44.50
2018-09-04T20:16:08.957Z,34.47
2018-09-04T20:18:37.329Z,37.10
2018-09-04T20:21:06.193Z,37.70
2018-09-04T20:23:34.637Z,38.93
2018-09-04T20:26:02.848Z,43.77
2018-09-04T20:28:31.381Z,54.50
2018-09-04T20:30:59.672Z,37.93
2018-09-04T20:33:27.941Z,43.13
2018-09-04T20:35:56.233Z,50.53
2018-09-04T20:38:24.429Z,54.93
2018-09-04T20:40:52.664Z,43.47
2018-09-04T20:43:20.879Z,44.53
2018-09-04T20:45:49.161Z,39.27
2018-09-04T20:48:17.467Z,34.33
2018-09-04T20:50:45.752Z,42.07
2018-09-04T20:53:14.078Z,45.97
2018-09-04T20:55:42.352Z,39.27
2018-09-04T20:58:16.125Z,39.93
2018-09-04T21:00:50.005Z,36.23
2018-09-04T21:03:23.585Z,42.93
2018-09-04T21:05:57.348Z,43.20
2018-09-04T21:08:31.864Z,47.97
2018-09-04T21:11:00.046Z,44.47
2018-09-04T21:13:28.480Z,54.27
2018-09-04T21:15:56.665Z,48.23
2018-09-04T21:18:24.856Z,51.03
2018-09-04T21:23:55.378Z,46.60
2018-09-04T21:26:23.543Z,40.40
2018-09-04T21:28:51.776Z,42.63
2018-09-04T21:31:20.042Z,44.80
2018-09-04T21:34:04.169Z,41.97
2018-09-04T21:36:32.336Z,36.67
2018-09-04T21:39:00.590Z,31.93
2018-09-04T21:41:28.756Z,40.43
2018-09-04T21:43:57.096Z,36.50
2018-09-04T21:46:25.241Z,35.53
2018-09-04T21:48:53.420Z,41.57
2018-09-04T21:51:21.576Z,37.60
2018-09-04T21:53:49.801Z,34.10
2018-09-04T21:56:17.944Z,32.13
